Time;durP1;ratioP1;P1;durP2;ratioP2;P2;SDS_P1;SDS_P2;PMS_P1;PMS_P2;Temp;Humidity;BMP_temperature;BMP_pressure;BME280_temperature;BME280_humidity;BME280_pressure;Samples;Min_cycle;Max_cycle;Signal;HPM_P1;HPM_P2
2022/11/28 00:01:22;;;;;;;18.10;12.43;;;3.60;41.20;;;;;;5044419;28;21016;-71
2022/11/28 00:03:49;;;;;;;16.70;11.67;;;3.60;41.20;;;;;;5048393;28;20473;-71
2022/11/28 00:06:17;;;;;;;17.77;11.97;;;3.60;41.20;;;;;;5050867;28;20458;-72
2022/11/28 00:08:45;;;;;;;19.03;11.37;;;3.60;41.10;;;;;;5048662;28;20484;-71
2022/11/28 00:11:15;;;;;;;20.30;12.53;;;3.60;41.10;;;;;;5048016;28;20496;-72
2022/11/28 00:13:42;;;;;;;20.87;13.13;;;3.60;41.10;;;;;;5049415;28;20453;-72
2022/11/28 00:16:12;;;;;;;19.43;12.37;;;3.60;41.20;;;;;;5049966;28;20454;-71
2022/11/28 00:18:39;;;;;;;19.20;12.53;;;3.60;41.10;;;;;;5051203;28;20576;-72
2022/11/28 00:21:08;;;;;;;22.17;12.70;;;3.60;41.00;;;;;;5046856;28;20462;-72
2022/11/28 00:23:36;;;;;;;20.43;12.83;;;3.60;40.90;;;;;;5049518;28;20485;-71
2022/11/28 00:26:05;;;;;;;20.33;13.27;;;3.60;40.90;;;;;;5048615;28;20466;-71
2022/11/28 00:28:32;;;;;;;24.73;13.53;;;3.60;41.00;;;;;;5050718;28;20474;-71
2022/11/28 00:30:59;;;;;;;24.07;14.67;;;3.60;41.00;;;;;;5047141;28;20480;-74
2022/11/28 00:33:26;;;;;;;19.70;12.40;;;3.60;40.90;;;;;;5050519;28;20454;-71
2022/11/28 00:35:58;;;;;;;17.83;12.83;;;3.60;40.80;;;;;;5044145;28;20462;-71
2022/11/28 00:38:25;;;;;;;18.30;13.03;;;3.60;40.90;;;;;;5050143;28;20490;-71
2022/11/28 00:41:00;;;;;;;39.63;13.27;;;3.60;41.00;;;;;;5048625;28;20469;-71
2022/11/28 00:43:27;;;;;;;22.73;11.90;;;3.60;41.20;;;;;;5048370;28;20469;-71
2022/11/28 00:45:54;;;;;;;27.00;13.67;;;3.60;41.00;;;;;;5049061;28;20587;-71
2022/11/28 00:48:20;;;;;;;22.70;12.10;;;3.60;41.10;;;;;;5048865;28;20875;-71
2022/11/28 00:50:47;;;;;;;22.57;14.50;;;3.60;41.30;;;;;;5046813;28;20458;-71
2022/11/28 00:53:14;;;;;;;19.10;11.70;;;3.50;41.50;;;;;;5042475;28;20454;-71
2022/11/28 00:55:41;;;;;;;17.73;11.97;;;3.50;41.60;;;;;;5048686;28;20806;-71
2022/11/28 00:58:10;;;;;;;21.73;13.77;;;3.40;41.80;;;;;;5048357;28;20454;-71
2022/11/28 01:00:37;;;;;;;23.80;11.30;;;3.40;41.80;;;;;;5046941;28;20487;-71
2022/11/28 01:03:04;;;;;;;19.57;14.07;;;3.40;41.90;;;;;;5052555;28;20858;-71
2022/11/28 01:05:31;;;;;;;20.17;13.13;;;3.40;42.20;;;;;;5046563;28;21115;-71
2022/11/28 01:07:58;;;;;;;18.93;12.27;;;3.40;42.20;;;;;;5054014;28;20802;-71
2022/11/28 01:10:25;;;;;;;18.70;11.57;;;3.40;42.30;;;;;;5047931;28;20484;-70
2022/11/28 01:12:52;;;;;;;17.93;11.37;;;3.40;42.10;;;;;;5054701;28;20457;-70
2022/11/28 01:15:20;;;;;;;19.37;11.77;;;3.40;42.10;;;;;;5049777;28;20957;-71
2022/11/28 01:17:47;;;;;;;23.17;11.77;;;3.40;42.30;;;;;;5052788;28;20465;-70
2022/11/28 01:20:14;;;;;;;17.20;11.63;;;3.30;42.40;;;;;;5047806;28;20501;-71
2022/11/28 01:22:41;;;;;;;20.60;10.80;;;3.30;42.50;;;;;;5045791;28;20477;-71
2022/11/28 01:25:08;;;;;;;18.90;11.60;;;3.30;42.80;;;;;;5049556;28;20473;-70
2022/11/28 01:27:34;;;;;;;17.77;11.80;;;3.20;43.20;;;;;;5048399;28;20914;-71
2022/11/28 01:30:01;;;;;;;18.93;11.70;;;3.20;43.70;;;;;;5052452;28;20488;-71
2022/11/28 01:32:29;;;;;;;18.50;12.37;;;3.20;44.10;;;;;;5065048;28;20484;-71
2022/11/28 01:34:56;;;;;;;18.87;12.40;;;3.20;44.30;;;;;;5064543;28;20842;-71
2022/11/28 01:37:23;;;;;;;19.70;12.83;;;3.30;44.30;;;;;;5069384;28;20530;-71
2022/11/28 01:39:50;;;;;;;19.00;12.50;;;3.30;43.90;;;;;;5060418;28;20477;-71
2022/11/28 01:42:18;;;;;;;22.97;13.60;;;3.30;43.90;;;;;;5062486;28;20461;-71
2022/11/28 01:45:12;;;;;;;20.27;13.03;;;3.40;43.50;;;;;;5067185;28;20483;-71
2022/11/28 01:47:40;;;;;;;19.33;11.40;;;3.40;43.60;;;;;;5062216;28;20457;-71
2022/11/28 01:50:08;;;;;;;19.30;12.87;;;3.40;43.70;;;;;;5067493;28;20473;-71
2022/11/28 01:52:38;;;;;;;19.23;12.80;;;3.40;43.40;;;;;;5066718;28;20456;-71
2022/11/28 01:55:05;;;;;;;19.43;13.63;;;3.40;43.40;;;;;;5067619;28;20457;-71
2022/11/28 01:57:33;;;;;;;19.33;12.67;;;3.40;43.60;;;;;;5066236;28;20457;-71
2022/11/28 02:00:09;;;;;;;17.57;11.90;;;3.40;43.30;;;;;;5067599;28;20496;-71
2022/11/28 02:02:40;;;;;;;22.57;13.80;;;3.40;43.30;;;;;;5065311;28;20472;-71
2022/11/28 02:05:08;;;;;;;18.07;12.63;;;3.40;43.50;;;;;;5064169;28;20481;-71
2022/11/28 02:07:35;;;;;;;20.60;13.97;;;3.50;43.50;;;;;;5066286;28;20476;-71
2022/11/28 02:10:05;;;;;;;19.70;13.30;;;3.50;43.60;;;;;;5064023;28;20473;-71
2022/11/28 02:12:48;;;;;;;20.43;12.93;;;3.60;43.60;;;;;;5065073;28;20457;-71
2022/11/28 02:15:26;;;;;;;29.53;14.57;;;3.60;43.70;;;;;;5060964;28;20454;-72
2022/11/28 02:18:12;;;;;;;20.00;13.30;;;3.60;43.40;;;;;;5066720;28;20479;-72
2022/11/28 02:21:12;;;;;;;18.73;12.03;;;3.60;43.20;;;;;;5066733;28;20458;-72
2022/11/28 02:24:04;;;;;;;21.87;13.43;;;3.70;43.20;;;;;;5059524;28;21015;-72
2022/11/28 02:27:08;;;;;;;18.97;12.07;;;3.70;42.60;;;;;;5064786;28;20460;-72
2022/11/28 02:30:03;;;;;;;19.70;13.30;;;3.70;42.60;;;;;;5063559;28;20480;-71
2022/11/28 02:32:49;;;;;;;16.57;11.40;;;3.70;42.60;;;;;;5042886;28;20474;-71
2022/11/28 02:35:19;;;;;;;20.70;12.27;;;3.70;42.40;;;;;;5045413;28;20458;-71
2022/11/28 02:37:58;;;;;;;21.63;13.33;;;3.70;42.40;;;;;;5045396;28;20462;-72
2022/11/28 02:40:28;;;;;;;17.97;12.53;;;3.70;42.30;;;;;;5045676;28;20454;-71
2022/11/28 02:43:05;;;;;;;20.57;13.33;;;3.80;42.20;;;;;;5040556;28;20507;-72
2022/11/28 02:45:38;;;;;;;20.10;13.27;;;3.80;42.40;;;;;;5046782;28;20481;-72
2022/11/28 02:48:10;;;;;;;16.03;12.00;;;3.80;42.10;;;;;;5044387;28;20466;-71
2022/11/28 02:50:42;;;;;;;18.50;12.00;;;3.80;41.90;;;;;;5046115;28;20989;-72
2022/11/28 02:53:12;;;;;;;20.50;12.90;;;3.80;41.90;;;;;;5042027;28;20458;-72
2022/11/28 02:55:41;;;;;;;19.33;12.87;;;3.80;42.00;;;;;;5047425;28;20953;-72
2022/11/28 02:58:09;;;;;;;18.20;12.70;;;3.80;41.80;;;;;;5043424;28;20454;-72
2022/11/28 03:00:38;;;;;;;19.40;13.07;;;3.90;41.80;;;;;;5043074;28;20824;-72
2022/11/28 03:03:40;;;;;;;18.20;13.37;;;3.80;41.60;;;;;;5046126;28;20470;-72
2022/11/28 03:06:16;;;;;;;17.30;11.67;;;3.80;41.70;;;;;;5031323;28;20815;-72
2022/11/28 03:09:03;;;;;;;20.17;12.10;;;3.80;41.50;;;;;;5042753;28;20486;-72
2022/11/28 03:11:41;;;;;;;18.17;12.20;;;3.80;41.60;;;;;;5044515;28;20696;-72
2022/11/28 03:14:15;;;;;;;20.83;13.97;;;3.90;41.50;;;;;;5045365;28;20458;-72
2022/11/28 03:16:49;;;;;;;20.37;12.67;;;3.90;41.50;;;;;;5043882;28;20461;-72
2022/11/28 03:19:22;;;;;;;22.80;13.80;;;3.90;41.30;;;;;;5044497;28;21013;-72
2022/11/28 03:21:56;;;;;;;18.30;12.03;;;3.90;41.20;;;;;;5045754;28;20474;-72
2022/11/28 03:24:27;;;;;;;16.63;11.60;;;3.90;40.90;;;;;;5045723;28;20473;-71
2022/11/28 03:26:57;;;;;;;19.00;12.97;;;3.80;40.90;;;;;;5046901;28;20957;-71
2022/11/28 03:29:32;;;;;;;22.33;13.63;;;3.70;41.10;;;;;;5042291;28;20478;-72
2022/11/28 03:32:03;;;;;;;22.27;14.17;;;3.70;41.50;;;;;;5045917;28;20487;-72
2022/11/28 03:34:35;;;;;;;19.87;13.20;;;3.60;41.40;;;;;;5045272;28;20454;-72
2022/11/28 03:37:08;;;;;;;19.53;12.57;;;3.60;41.80;;;;;;5042894;28;21089;-72
2022/11/28 03:39:39;;;;;;;21.10;12.10;;;3.60;42.00;;;;;;5044280;28;20478;-72
2022/11/28 03:42:10;;;;;;;20.37;13.37;;;3.80;42.10;;;;;;5043106;28;20458;-72
2022/11/28 03:44:43;;;;;;;21.10;13.60;;;3.60;42.10;;;;;;5043071;28;20482;-72
2022/11/28 03:47:10;;;;;;;21.87;14.27;;;3.60;42.10;;;;;;5047224;28;20462;-72
2022/11/28 03:49:42;;;;;;;22.57;14.40;;;3.60;42.00;;;;;;5042555;28;20560;-72
2022/11/28 03:52:16;;;;;;;21.23;13.83;;;3.60;42.00;;;;;;5044503;28;20458;-72
2022/11/28 03:54:51;;;;;;;22.53;15.20;;;3.60;42.00;;;;;;5046933;28;20461;-71
2022/11/28 03:57:23;;;;;;;22.63;14.07;;;3.70;42.10;;;;;;5044584;28;20461;-71
2022/11/28 03:59:52;;;;;;;21.80;14.37;;;3.70;42.00;;;;;;5044387;28;20488;-71
2022/11/28 04:02:28;;;;;;;22.27;13.60;;;3.70;41.80;;;;;;5044685;28;20478;-71
2022/11/28 04:05:02;;;;;;;20.93;14.13;;;3.70;41.80;;;;;;5043568;28;20572;-71
2022/11/28 04:07:36;;;;;;;20.63;12.83;;;3.70;41.70;;;;;;5044738;28;20469;-71
2022/11/28 04:10:09;;;;;;;21.40;14.03;;;3.70;41.70;;;;;;5044258;28;20496;-71
2022/11/28 04:12:46;;;;;;;22.90;14.13;;;3.70;41.70;;;;;;5045235;28;20467;-71
2022/11/28 04:15:19;;;;;;;25.43;14.27;;;3.60;41.90;;;;;;5045265;28;20474;-71
2022/11/28 04:17:54;;;;;;;21.17;13.50;;;3.50;42.30;;;;;;5045685;28;20492;-71
2022/11/28 04:20:30;;;;;;;20.40;13.63;;;3.50;42.30;;;;;;5042753;28;20469;-71
2022/11/28 04:23:02;;;;;;;23.23;13.90;;;3.50;42.30;;;;;;5046282;28;20453;-71
2022/11/28 04:25:34;;;;;;;23.43;14.47;;;3.50;42.40;;;;;;5046919;28;20477;-71
2022/11/28 04:28:05;;;;;;;23.60;14.03;;;3.50;42.80;;;;;;5045278;28;20971;-71
2022/11/28 04:30:33;;;;;;;23.77;15.30;;;3.50;42.90;;;;;;5041426;28;20482;-71
2022/11/28 04:33:04;;;;;;;24.20;15.23;;;3.50;43.00;;;;;;5045215;28;20488;-71
2022/11/28 04:35:36;;;;;;;24.50;14.97;;;3.50;43.00;;;;;;5039597;28;20541;-72
2022/11/28 04:38:06;;;;;;;27.20;13.50;;;3.60;43.10;;;;;;5043787;28;20958;-71
2022/11/28 04:40:38;;;;;;;22.33;14.10;;;3.50;43.00;;;;;;5040240;28;20458;-71
2022/11/28 04:43:10;;;;;;;22.60;14.83;;;3.60;43.00;;;;;;5042923;28;20461;-71
2022/11/28 04:45:43;;;;;;;22.23;13.27;;;3.60;43.10;;;;;;5046736;28;20481;-71
2022/11/28 04:48:10;;;;;;;21.17;14.37;;;3.60;42.90;;;;;;5048209;28;21008;-71
2022/11/28 04:50:47;;;;;;;21.10;14.07;;;3.70;42.80;;;;;;5046333;28;20464;-71
2022/11/28 04:53:18;;;;;;;21.73;13.50;;;3.70;42.40;;;;;;5044798;28;20458;-71
2022/11/28 04:55:48;;;;;;;23.70;15.23;;;3.70;42.40;;;;;;5046024;28;20458;-72
2022/11/28 04:58:19;;;;;;;22.30;15.00;;;3.70;42.40;;;;;;5043646;28;20473;-72
2022/11/28 05:00:50;;;;;;;20.47;13.80;;;3.70;42.60;;;;;;5046331;28;20478;-71
2022/11/28 05:03:18;;;;;;;20.33;12.83;;;3.60;42.60;;;;;;5045369;28;20455;-71
2022/11/28 05:05:48;;;;;;;21.47;14.33;;;3.70;42.70;;;;;;5040259;28;20482;-75
2022/11/28 05:08:16;;;;;;;25.57;15.00;;;3.80;42.60;;;;;;5040900;28;20486;-76
2022/11/28 05:10:43;;;;;;;20.90;14.10;;;3.80;42.60;;;;;;5041678;28;20461;-78
2022/11/28 05:13:09;;;;;;;19.50;13.13;;;3.80;42.40;;;;;;5046495;28;20462;-78
2022/11/28 05:15:36;;;;;;;21.00;12.50;;;3.80;42.40;;;;;;5053931;28;20907;-77
2022/11/28 05:18:03;;;;;;;19.70;12.20;;;3.90;42.50;;;;;;5041262;28;20455;-79
2022/11/28 05:20:30;;;;;;;20.07;13.70;;;3.90;42.20;;;;;;5057463;28;20465;-78
2022/11/28 05:22:58;;;;;;;21.93;14.30;;;4.00;42.20;;;;;;5046771;28;20465;-78
2022/11/28 05:25:25;;;;;;;22.10;13.83;;;4.00;42.10;;;;;;5050730;28;20485;-78
2022/11/28 05:27:52;;;;;;;21.50;14.20;;;4.00;42.00;;;;;;5040466;28;20459;-77
2022/11/28 05:30:19;;;;;;;19.83;13.27;;;4.00;42.00;;;;;;5068212;23;20484;-67
2022/11/28 05:32:45;;;;;;;18.93;13.10;;;4.10;41.70;;;;;;5041393;28;20466;-67
2022/11/28 05:35:12;;;;;;;19.13;12.20;;;4.10;41.40;;;;;;5048846;28;20990;-67
2022/11/28 05:37:39;;;;;;;21.77;14.20;;;4.20;41.20;;;;;;5043988;28;20480;-67
2022/11/28 05:40:08;;;;;;;25.93;15.83;;;4.20;41.40;;;;;;5044763;28;20480;-66
2022/11/28 05:42:35;;;;;;;20.93;14.47;;;4.20;41.60;;;;;;5040541;28;20470;-67
2022/11/28 05:45:03;;;;;;;20.80;13.43;;;4.20;41.60;;;;;;5058632;28;20511;-67
2022/11/28 05:47:31;;;;;;;18.73;13.43;;;4.20;41.50;;;;;;5038747;28;20463;-67
2022/11/28 05:49:58;;;;;;;21.73;13.93;;;4.10;41.50;;;;;;5052985;28;20471;-66
2022/11/28 05:52:25;;;;;;;19.50;13.43;;;4.10;41.70;;;;;;5050511;28;20846;-67
2022/11/28 05:54:51;;;;;;;23.60;13.67;;;4.10;41.70;;;;;;5048842;28;20459;-67
2022/11/28 05:57:19;;;;;;;21.60;14.27;;;4.10;41.80;;;;;;5044613;28;20461;-67
2022/11/28 05:59:46;;;;;;;18.40;12.93;;;4.10;41.80;;;;;;5050935;28;20481;-67
2022/11/28 06:02:13;;;;;;;24.30;15.67;;;4.10;41.70;;;;;;5048583;28;20474;-67
2022/11/28 06:04:40;;;;;;;23.10;14.83;;;4.10;41.70;;;;;;5048037;28;20494;-66
2022/11/28 06:07:07;;;;;;;22.27;14.63;;;4.10;41.60;;;;;;5043159;28;20453;-66
2022/11/28 06:09:34;;;;;;;23.90;15.37;;;4.10;41.50;;;;;;5036071;28;21004;-66
2022/11/28 06:12:01;;;;;;;23.50;17.27;;;4.00;41.40;;;;;;5044656;28;20480;-66
2022/11/28 06:14:29;;;;;;;21.80;15.17;;;4.00;41.30;;;;;;5037610;28;20465;-66
2022/11/28 06:16:56;;;;;;;23.00;15.83;;;4.00;41.50;;;;;;5045915;28;20454;-66
2022/11/28 06:19:23;;;;;;;20.60;13.93;;;4.00;41.60;;;;;;5038798;28;20494;-66
2022/11/28 06:21:50;;;;;;;20.60;15.10;;;4.00;41.70;;;;;;5040316;28;20470;-67
2022/11/28 06:24:17;;;;;;;23.10;16.67;;;3.90;41.70;;;;;;5042292;28;20532;-66
2022/11/28 06:26:44;;;;;;;21.80;14.50;;;3.90;41.80;;;;;;5055033;28;20826;-66
2022/11/28 06:29:11;;;;;;;20.77;13.53;;;3.90;41.90;;;;;;5052931;28;21687;-66
2022/11/28 06:31:39;;;;;;;23.47;15.10;;;3.90;41.90;;;;;;5058960;28;20480;-68
2022/11/28 06:34:06;;;;;;;21.63;15.37;;;3.90;41.90;;;;;;5044572;28;20489;-67
2022/11/28 06:36:33;;;;;;;22.23;14.93;;;3.90;41.90;;;;;;5045595;28;20875;-67
2022/11/28 06:39:00;;;;;;;24.43;15.80;;;3.90;41.80;;;;;;5045906;28;20460;-67
2022/11/28 06:41:27;;;;;;;24.50;16.70;;;3.90;41.90;;;;;;5049117;28;20471;-67
2022/11/28 06:43:55;;;;;;;23.40;16.60;;;3.90;41.80;;;;;;5045734;28;20463;-67
2022/11/28 06:46:22;;;;;;;24.83;16.13;;;3.90;41.80;;;;;;5047422;28;20507;-67
2022/11/28 06:48:52;;;;;;;20.93;14.80;;;3.90;41.80;;;;;;5047973;28;20459;-67
2022/11/28 06:51:19;;;;;;;18.83;13.17;;;3.90;41.80;;;;;;5050408;28;20461;-66
2022/11/28 06:53:46;;;;;;;17.03;11.47;;;3.90;41.80;;;;;;5063168;28;20467;-67
2022/11/28 06:56:14;;;;;;;18.43;12.03;;;3.90;41.50;;;;;;5047733;28;20453;-67
2022/11/28 06:58:41;;;;;;;16.10;12.30;;;3.90;41.50;;;;;;5047905;28;20474;-67
2022/11/28 07:01:10;;;;;;;18.00;12.20;;;3.90;41.60;;;;;;5054682;28;20480;-67
2022/11/28 07:03:38;;;;;;;16.93;11.93;;;3.90;41.60;;;;;;5050542;28;20454;-67
2022/11/28 07:06:07;;;;;;;18.20;12.80;;;3.90;41.70;;;;;;5042777;28;20833;-67
2022/11/28 07:08:34;;;;;;;19.93;12.90;;;3.90;41.60;;;;;;5047739;28;20461;-67
2022/11/28 07:11:08;;;;;;;19.50;12.60;;;3.90;41.70;;;;;;5046577;28;20480;-67
2022/11/28 07:13:35;;;;;;;16.83;11.63;;;3.90;41.70;;;;;;5058394;28;20471;-67
2022/11/28 07:16:02;;;;;;;19.40;12.77;;;3.90;41.60;;;;;;5044778;28;20453;-66
2022/11/28 07:18:29;;;;;;;18.00;12.50;;;3.90;41.70;;;;;;5047903;28;20933;-67
2022/11/28 07:20:56;;;;;;;17.60;12.90;;;3.90;41.70;;;;;;5053558;28;20559;-67
2022/11/28 07:23:24;;;;;;;19.60;13.23;;;3.90;41.70;;;;;;5054286;28;20472;-67
2022/11/28 07:25:51;;;;;;;18.50;12.83;;;3.90;41.70;;;;;;5055382;28;20849;-67
2022/11/28 07:28:18;;;;;;;18.90;12.97;;;4.00;41.60;;;;;;5045558;28;20546;-67
2022/11/28 07:30:44;;;;;;;18.10;12.90;;;4.00;41.60;;;;;;5048872;28;20894;-67
2022/11/28 07:33:11;;;;;;;18.50;12.03;;;4.00;41.60;;;;;;5030751;28;20459;-67
2022/11/28 07:35:38;;;;;;;19.80;13.50;;;4.00;41.60;;;;;;5052449;28;20453;-67
2022/11/28 07:38:05;;;;;;;19.07;13.07;;;4.00;41.60;;;;;;5051984;28;20480;-67
2022/11/28 07:40:33;;;;;;;18.40;12.60;;;4.00;41.60;;;;;;5049050;28;20473;-67
2022/11/28 07:43:00;;;;;;;19.47;11.93;;;4.10;41.60;;;;;;5052962;28;20461;-67
2022/11/28 07:45:26;;;;;;;19.77;13.80;;;4.10;41.50;;;;;;5043790;28;20468;-67
2022/11/28 07:47:53;;;;;;;18.93;13.17;;;4.10;41.50;;;;;;5051738;28;20465;-67
2022/11/28 07:50:20;;;;;;;21.07;14.10;;;4.10;42.10;;;;;;5050816;28;20484;-67
2022/11/28 07:52:48;;;;;;;19.20;12.97;;;4.20;41.30;;;;;;5046902;28;20451;-67
2022/11/28 07:55:15;;;;;;;19.70;13.50;;;4.20;41.30;;;;;;5037791;28;20502;-67
2022/11/28 07:57:43;;;;;;;20.53;13.40;;;4.20;41.00;;;;;;5043274;28;20484;-67
2022/11/28 08:00:11;;;;;;;20.90;14.10;;;4.30;41.10;;;;;;5041808;28;20476;-67
2022/11/28 08:02:39;;;;;;;20.97;15.57;;;4.30;41.10;;;;;;5035355;28;20470;-67
2022/11/28 08:05:06;;;;;;;21.53;13.83;;;4.30;41.00;;;;;;5034049;28;20473;-68
2022/11/28 08:07:33;;;;;;;20.23;13.60;;;4.30;40.90;;;;;;5038938;28;20459;-67
2022/11/28 08:10:00;;;;;;;20.27;14.40;;;4.30;40.90;;;;;;5044562;28;20481;-67
2022/11/28 08:12:26;;;;;;;23.37;14.20;;;4.30;40.80;;;;;;5038827;28;20534;-67
2022/11/28 08:14:55;;;;;;;23.70;15.87;;;4.40;40.90;;;;;;5053909;28;20457;-67
2022/11/28 08:17:21;;;;;;;20.77;14.20;;;4.40;40.80;;;;;;5036030;28;20459;-67
2022/11/28 08:19:48;;;;;;;21.50;15.60;;;4.40;40.80;;;;;;5050809;28;20854;-67
2022/11/28 08:22:15;;;;;;;21.23;14.67;;;4.50;40.80;;;;;;5041477;28;20471;-67
2022/11/28 08:24:41;;;;;;;22.80;15.37;;;4.50;40.60;;;;;;5050263;28;20998;-67
2022/11/28 08:27:08;;;;;;;20.90;13.07;;;4.50;40.50;;;;;;5049995;28;20476;-67
2022/11/28 08:29:35;;;;;;;24.07;14.97;;;4.60;40.20;;;;;;5056214;28;20736;-68
2022/11/28 08:32:03;;;;;;;17.13;12.67;;;4.60;40.50;;;;;;5047750;28;20473;-67
2022/11/28 08:34:30;;;;;;;18.43;13.00;;;4.60;40.00;;;;;;5056262;28;20892;-67
2022/11/28 08:36:57;;;;;;;19.47;13.03;;;4.70;39.80;;;;;;5056714;28;20949;-68
2022/11/28 08:39:24;;;;;;;20.03;13.40;;;4.70;39.50;;;;;;5042789;28;20474;-67
2022/11/28 08:41:51;;;;;;;17.90;11.40;;;4.70;39.50;;;;;;5050729;28;20465;-67
2022/11/28 08:44:17;;;;;;;17.50;11.67;;;4.70;39.40;;;;;;5061500;28;20461;-67
2022/11/28 08:46:44;;;;;;;18.23;12.10;;;4.70;39.60;;;;;;5044106;28;20482;-68
2022/11/28 08:49:12;;;;;;;20.13;13.50;;;4.70;39.60;;;;;;5052995;28;20483;-67
2022/11/28 08:51:39;;;;;;;18.70;12.20;;;4.80;39.60;;;;;;5044028;28;20462;-66
2022/11/28 08:54:06;;;;;;;19.73;13.73;;;4.80;39.50;;;;;;5039108;28;20479;-66
2022/11/28 08:56:34;;;;;;;18.40;12.13;;;4.80;39.50;;;;;;5044761;28;20865;-66
2022/11/28 08:59:01;;;;;;;20.33;13.97;;;4.90;39.50;;;;;;5050659;28;20533;-66
2022/11/28 09:01:29;;;;;;;20.53;14.40;;;4.90;39.40;;;;;;5044228;28;20480;-66
2022/11/28 09:03:56;;;;;;;21.70;15.00;;;4.90;39.30;;;;;;5054939;28;20511;-66
2022/11/28 09:06:25;;;;;;;20.67;13.50;;;5.00;39.10;;;;;;5041553;28;20581;-66
2022/11/28 09:08:53;;;;;;;19.70;14.30;;;5.00;39.10;;;;;;5051795;28;20455;-67
2022/11/28 09:11:21;;;;;;;23.43;14.37;;;5.00;39.00;;;;;;5051053;28;20454;-67
2022/11/28 09:13:49;;;;;;;20.20;13.43;;;5.00;39.10;;;;;;5050924;28;20465;-67
2022/11/28 09:16:16;;;;;;;22.17;15.17;;;5.00;39.20;;;;;;5040752;28;20454;-67
2022/11/28 09:18:43;;;;;;;21.17;14.13;;;5.10;39.20;;;;;;5046605;28;20459;-66
2022/11/28 09:21:12;;;;;;;19.30;13.20;;;5.10;39.20;;;;;;5052253;28;20460;-66
2022/11/28 09:23:42;;;;;;;23.40;15.00;;;5.10;39.00;;;;;;5042482;28;20550;-66
2022/11/28 09:26:10;;;;;;;19.53;13.37;;;5.20;38.80;;;;;;5053117;28;20477;-66
2022/11/28 09:28:36;;;;;;;20.70;12.97;;;5.20;38.90;;;;;;5044902;28;20507;-66
2022/11/28 09:31:05;;;;;;;27.27;16.30;;;5.30;38.90;;;;;;5044473;28;20473;-67
2022/11/28 09:33:32;;;;;;;21.53;13.67;;;5.30;38.90;;;;;;5048039;28;20472;-66
2022/11/28 09:36:03;;;;;;;20.23;13.60;;;5.40;38.30;;;;;;5060806;28;20471;-66
2022/11/28 09:38:30;;;;;;;22.60;14.27;;;5.50;38.30;;;;;;5060173;28;20492;-67
2022/11/28 09:40:58;;;;;;;18.80;13.13;;;5.60;38.30;;;;;;5056879;28;20477;-66
2022/11/28 09:43:30;;;;;;;20.30;14.47;;;5.60;38.00;;;;;;5055006;28;20453;-65
2022/11/28 09:45:59;;;;;;;17.67;13.13;;;5.70;38.00;;;;;;5049638;28;20488;-66
2022/11/28 09:48:30;;;;;;;22.80;15.20;;;5.70;37.80;;;;;;5060767;28;20461;-66
2022/11/28 09:51:05;;;;;;;19.50;13.83;;;5.80;37.60;;;;;;5049158;28;20562;-66
2022/11/28 09:53:39;;;;;;;22.10;13.77;;;5.90;37.40;;;;;;5052875;28;20462;-67
2022/11/28 09:56:13;;;;;;;20.23;13.50;;;5.90;37.30;;;;;;5049408;28;20450;-67
2022/11/28 09:58:45;;;;;;;22.83;13.47;;;5.90;37.00;;;;;;5058653;28;20541;-67
2022/11/28 10:01:17;;;;;;;18.40;13.03;;;5.90;37.10;;;;;;5055226;28;21203;-67
2022/11/28 10:03:52;;;;;;;20.00;13.40;;;6.00;37.30;;;;;;5056712;28;20462;-67
2022/11/28 10:06:24;;;;;;;20.47;14.07;;;6.00;37.20;;;;;;5051992;28;20468;-66
2022/11/28 10:09:08;;;;;;;19.10;12.87;;;6.00;37.30;;;;;;5053347;28;20555;-66
2022/11/28 10:11:49;;;;;;;19.97;13.37;;;6.10;37.20;;;;;;5056851;28;20460;-66
2022/11/28 10:14:54;;;;;;;22.20;14.47;;;6.20;37.10;;;;;;5051655;28;21373;-67
2022/11/28 10:17:30;;;;;;;18.43;12.43;;;6.20;37.20;;;;;;5025792;28;20455;-67
2022/11/28 10:20:02;;;;;;;17.90;13.70;;;6.30;37.00;;;;;;5051931;28;20480;-67
2022/11/28 10:22:35;;;;;;;20.90;14.53;;;6.30;37.00;;;;;;5054382;28;20493;-67
2022/11/28 10:25:10;;;;;;;21.57;14.63;;;6.40;37.00;;;;;;5047125;28;20461;-67
2022/11/28 10:27:40;;;;;;;19.00;13.53;;;6.40;37.60;;;;;;5053267;28;20474;-67
2022/11/28 10:30:16;;;;;;;19.70;13.87;;;6.40;36.90;;;;;;5043801;28;20492;-67
2022/11/28 10:32:46;;;;;;;23.60;15.33;;;6.50;36.60;;;;;;5061756;28;20457;-66
2022/11/28 10:35:25;;;;;;;18.60;14.33;;;6.60;36.50;;;;;;5050842;28;20470;-67
2022/11/28 10:37:52;;;;;;;21.80;13.70;;;6.60;36.20;;;;;;5058702;28;21237;-67
2022/11/28 10:40:27;;;;;;;19.23;13.13;;;6.70;36.10;;;;;;5048528;28;20859;-66
2022/11/28 10:42:59;;;;;;;20.63;15.00;;;6.70;35.90;;;;;;5058571;28;20486;-67
2022/11/28 10:45:34;;;;;;;21.43;15.27;;;6.70;36.00;;;;;;5048681;28;20835;-66
2022/11/28 10:48:11;;;;;;;21.90;13.30;;;6.80;36.00;;;;;;5058235;28;20595;-66
2022/11/28 10:50:49;;;;;;;19.33;13.57;;;6.80;35.90;;;;;;5061675;28;20476;-66
2022/11/28 10:53:24;;;;;;;18.70;14.00;;;6.80;35.90;;;;;;5050627;28;20969;-67
2022/11/28 10:56:03;;;;;;;19.10;14.30;;;6.80;35.60;;;;;;5059939;28;20480;-67
2022/11/28 10:58:39;;;;;;;20.00;14.53;;;6.90;35.60;;;;;;5040238;28;20450;-67
2022/11/28 11:01:06;;;;;;;18.10;12.73;;;6.90;35.50;;;;;;5052254;28;20552;-67
2022/11/28 11:03:35;;;;;;;20.17;14.73;;;6.90;35.50;;;;;;5043545;28;20458;-67
2022/11/28 11:06:03;;;;;;;18.23;13.80;;;6.90;35.60;;;;;;5061184;28;20494;-67
2022/11/28 11:08:34;;;;;;;19.50;14.40;;;6.90;35.50;;;;;;5044678;28;20454;-66
2022/11/28 11:11:05;;;;;;;18.90;13.30;;;7.00;35.50;;;;;;5057911;28;20511;-66
2022/11/28 11:13:35;;;;;;;28.13;16.07;;;7.00;35.50;;;;;;5059279;28;20463;-66
2022/11/28 11:16:05;;;;;;;26.10;15.93;;;7.00;35.50;;;;;;5059092;28;20461;-66
2022/11/28 11:18:35;;;;;;;19.60;13.90;;;7.00;35.50;;;;;;5059417;28;20546;-67
2022/11/28 11:21:09;;;;;;;19.23;14.43;;;7.10;35.40;;;;;;5059688;28;20484;-67
2022/11/28 11:23:36;;;;;;;18.77;13.50;;;7.10;35.50;;;;;;5054614;28;20846;-66
2022/11/28 11:26:05;;;;;;;22.30;14.40;;;7.10;35.40;;;;;;5048269;28;20487;-67
2022/11/28 11:28:42;;;;;;;18.50;13.33;;;7.20;34.90;;;;;;5043555;28;20616;-67
2022/11/28 11:31:18;;;;;;;21.20;14.50;;;7.20;35.10;;;;;;5044624;28;20473;-67
2022/11/28 11:33:45;;;;;;;19.57;13.73;;;7.20;35.20;;;;;;5043426;28;20852;-67
2022/11/28 11:36:28;;;;;;;21.43;14.73;;;7.30;35.20;;;;;;5049468;28;20453;-67
2022/11/28 11:39:07;;;;;;;18.73;13.93;;;7.30;35.70;;;;;;5045951;28;20454;-67
2022/11/28 11:41:34;;;;;;;22.90;16.23;;;7.40;34.90;;;;;;5061933;28;20466;-67
2022/11/28 11:44:28;;;;;;;19.50;13.13;;;7.40;34.70;;;;;;5050985;28;20484;-67
2022/11/28 11:46:56;;;;;;;20.10;13.80;;;7.40;34.60;;;;;;5058983;28;21005;-67
2022/11/28 11:49:32;;;;;;;18.67;12.97;;;7.50;34.60;;;;;;5051501;28;20481;-67
2022/11/28 11:52:04;;;;;;;16.03;12.53;;;7.50;34.30;;;;;;5060946;28;20458;-67
2022/11/28 11:54:31;;;;;;;19.70;13.27;;;7.60;34.30;;;;;;5050589;28;20496;-67
2022/11/28 11:56:59;;;;;;;17.13;13.30;;;7.60;34.10;;;;;;5063443;28;21016;-67
2022/11/28 11:59:33;;;;;;;20.20;13.83;;;7.60;34.00;;;;;;5054293;28;20472;-67
2022/11/28 12:02:03;;;;;;;21.47;14.53;;;7.70;34.20;;;;;;5056666;28;20472;-67
2022/11/28 12:04:37;;;;;;;22.77;15.20;;;7.70;34.10;;;;;;5056105;28;20457;-67
2022/11/28 12:07:09;;;;;;;20.10;14.20;;;7.70;34.20;;;;;;5046820;28;20495;-66
2022/11/28 12:09:41;;;;;;;19.43;12.90;;;7.80;34.30;;;;;;5055729;28;20972;-66
2022/11/28 12:12:15;;;;;;;18.63;12.93;;;7.80;34.10;;;;;;5055268;28;20464;-67
2022/11/28 12:14:44;;;;;;;20.43;13.50;;;7.80;33.80;;;;;;5053393;28;20457;-67
2022/11/28 12:17:26;;;;;;;21.90;13.60;;;7.90;33.60;;;;;;5059746;28;20498;-67
2022/11/28 12:20:06;;;;;;;19.23;12.40;;;8.00;33.70;;;;;;5042193;28;20478;-67
2022/11/28 12:22:42;;;;;;;19.23;12.57;;;8.00;33.50;;;;;;5054371;28;20449;-67
2022/11/28 12:25:15;;;;;;;18.23;13.53;;;8.00;33.20;;;;;;5046524;28;20456;-67
2022/11/28 12:27:56;;;;;;;17.87;12.47;;;8.00;33.40;;;;;;5046497;28;20475;-67
2022/11/28 12:30:38;;;;;;;19.10;13.10;;;8.00;33.00;;;;;;5046584;28;20485;-67
2022/11/28 12:33:19;;;;;;;18.63;13.10;;;8.10;32.60;;;;;;5049236;28;20956;-67
2022/11/28 12:35:55;;;;;;;17.87;13.60;;;8.10;32.70;;;;;;5056103;28;20467;-67
2022/11/28 12:38:36;;;;;;;17.17;13.07;;;8.10;32.70;;;;;;5056221;28;20457;-67
2022/11/28 12:41:22;;;;;;;18.73;14.83;;;8.00;32.80;;;;;;5044088;28;20486;-67
2022/11/28 12:44:01;;;;;;;18.67;13.20;;;8.10;33.00;;;;;;5052048;28;20468;-67
2022/11/28 12:46:35;;;;;;;16.30;12.60;;;8.10;33.00;;;;;;5044005;28;20474;-67
2022/11/28 12:49:13;;;;;;;19.47;12.90;;;8.10;33.00;;;;;;5047428;28;20991;-68
2022/11/28 12:51:49;;;;;;;18.00;13.97;;;8.20;33.00;;;;;;5041743;28;20486;-68
2022/11/28 12:54:50;;;;;;;17.20;12.10;;;8.20;32.80;;;;;;5050827;28;20886;-68